OISY  Yasouj  Airport

Iran

Add Bookmark
ICAO OISY
Type Airport
Status Operational
Latitude
30° 42' 1" N
30.700500
Longitude
51° 32' 42" E
51.545101
Local (GMT +3.5 ) UTC
Dec 6, 2016 04:16 am Dec 6, 2016 00:46
Sunrise-Sunset Local UTC
Begin Civil Twilight 06:20 am 02:50
Sunrise 06:46 am 03:16
Sunset 05:03 pm 13:33
End Civil Twilight 05:29 pm 13:59
VFR
VFR
MVFR
MVFR
IFR
IFR
LIFR
LIFR
Unknown
No Data

Current Weather

METAR Observed VFR
OISY 060000Z 18004KT CAVOK 08/02 Q1026 Tue, Dec 6, 2016 @ 00:00 UTC
(46 Minutes ago)
Visual Flight Rules
Wind Visibility Conditions
180° at 4 knots (7 kph) 10 km or more
  • No significant weather
Temperatures Readings Precipitation
Current Temp
8°C
46°F
Dewpoint
2°C
36°F
Humidity 66%
Altimeter 30.3" Hg
Sea Level Pressure 1,026 mb
Field Elevation
1,811 m
5,942 ft
None Recorded

Additional weather within a 92.6km radius of OISY

Map ICAO Location
OIAH 79.6km W/SW (240°)
VFR
VFR
MVFR
MVFR
IFR
IFR
LIFR
LIFR
Unknown
No Data
-
-

CheckWX.com is intended as a tool to help pilots better visualize weather data. It is not intended as a substitute for an official weather briefing obtained from a Flight Service Station. CheckWX.com does not meet the FAA requirements for an official pre-flight weather briefing. Therefore, it's important that pilots still call and obtain an official FSS pre-flight weather briefing.

© 2007-2016 CheckWX.com
00:46:55 UTC